x

Portland 12 Nm Southeast Of Portland,me (44007) Wave Buoy

12:50 - Thu 29th Jan 2015 All times are EST. -5 hours from GMT.

  • Sig Wave height 3.0ft
  • Swell Direction
  • Peak Period 10s
  • Average Period 8s
  • Wind
    4mph, 7mph gusts
  • Sea Temp 40°f
  • Air Temp 25°f
  • Sea Pressure 1024.3mb
  • Portland 12 Nm Southeast Of Portland,me
  • Portland 12 Nm Southeast Of Portland,me

More Historic Weather Station data

Upgrade to MSW Pro to gain access to the past 30 days of data for over 8000 Wavebouys and Weather Stations around the globe.

Join Pro

Comparision Forecast

View Surf forecast
   
jeu. 01/29 12:50 3ft 10s 8s 4 7 mph 1024.3mb 40f 25f
11:50 2.5ft 10s 8s 4 9 mph 1025.5mb 40f 25f
10:50 2.5ft 10s 8s 4 7 mph 1026.5mb 40f 24f
9:50 2.5ft 10s 8s 4 7 mph 1026.5mb 40f 23f
8:50 2.5ft 11s 8s 4 9 mph 1026.2mb 40f 21f
7:50 2.5ft 11s 7s 7 9 mph 1025.7mb 40f 21f
6:50 2.5ft 11s 6s 4 7 mph 1025.1mb 40f 21f
5:50 2.5ft 10s 6s 7 9 mph 1025.1mb 40f 20f
4:50 2.5ft 11s 6s 13 16 mph 1024.9mb 40f 22f
3:50 2.5ft 11s 6s 11 16 mph 1024.2mb 40f 23f
2:50 3.5ft 12s 7s 11 13 mph 1024.5mb 40f 22f
1:50 3.5ft 11s 8s 11 13 mph 1024.3mb 40f 22f
12:50 3.5ft 10s 7s 9 11 mph 1023.6mb 40f 21f
mer. 01/28 11:50 3.5ft 11s 7s 11 16 mph 1022.8mb 40f 23f
10:50 3.5ft 11s 7s 13 18 mph 1022.1mb 40f 22f
9:50 4ft 11s 6s 11 13 mph 1021.4mb 40f 22f
8:50 4ft 11s 6s 20 25 mph 1020.5mb 41f 24f
7:50 3.5ft 11s 5s 18 22 mph 1019.7mb 41f 26f
6:50 3.5ft 12s 5s 18 22 mph 1018.2mb 41f 26f
5:50 4ft 12s 6s 25 29 mph 1016.7mb 41f 27f
4:50 4ft 12s 6s 20 25 mph 1015.7mb 41f 27f
3:50 4.5ft 13s 6s 18 22 mph 1015mb 40f 26f
2:50 5ft 13s 7s 22 29 mph 1013.8mb 40f 26f
1:50 5ft 12s 6s 20 25 mph 1012.9mb 40f 25f
12:50 5ft 10s 6s 20 27 mph 1012.4mb 40f 24f
11:50 5.5ft 11s 6s 22 27 mph 1012.5mb 40f 22f
10:50 6ft 11s 6s 25 31 mph 1012.6mb 40f 21f
9:50 6.5ft 11s 7s 27 31 mph 1011.9mb 40f 20f
8:50 7ft 11s 7s 22 27 mph 1010.9mb 40f 20f
7:50 7ft 11s 7s 18 25 mph 1009.7mb 40f 19f
6:50 10ft 12s 8s 25 29 mph 1007.8mb 40f 20f
5:50 9ft 12s 7s 27 34 mph 1006.4mb 41f 19f
4:50 10ft 12s 8s 29 36 mph 1005.1mb 41f 19f
3:50 10ft 12s 7s 31 38 mph 1004mb 41f 20f
2:50 12ft 12s 7s 34 43 mph 1003.1mb 41f 20f
1:50 12ft 13s 7s 36 47 mph 1002.2mb 41f 19f
12:50 12ft 11s 7s 36 43 mph 1001.7mb 41f 19f
mar. 01/27 11:50 14ft 13s 8s 38 49 mph 1001.2mb 40f 19f
10:50 7.5ft 12s 6s 38 49 mph 1000.6mb 40f 19f
9:50 12ft 13s 7s 38 45 mph 1000.2mb 40f 18f
8:50 5.5ft 7s 5s 38 49 mph 999.7mb 40f 18f
7:50 13.5ft 13s 8s 38 51 mph 999.1mb 41f 18f
6:50 14ft 12s 8s 36 47 mph 999mb 41f 19f
5:50 16.5ft 13s 8s 38 47 mph 998.2mb 41f 19f
4:50 10ft 12s 6s 38 47 mph 997.4mb 41f 18f
3:50 16.5ft 12s 8s 45 56 mph 996.6mb 41f 20f
2:50 12ft 13s 7s 40 56 mph 997mb 41f 21f
1:50 12.5ft 13s 7s 43 56 mph 997.1mb 41f 20f
12:50 13ft 12s 7s 40 51 mph 997.9mb 41f 21f
11:50 7.5ft 7s 5s 43 54 mph 999.3mb 41f 19f
10:50 12ft 13s 7s 40 47 mph 1001.3mb 40f 18f
9:50 13ft 11s 7s 38 49 mph 1002.2mb 40f 18f
8:50 13ft 11s 7s 40 51 mph 1003.1mb 41f 17f
7:50 12ft 10s 6s 43 49 mph 1003.2mb 41f 17f
6:50 10ft 9s 6s 43 51 mph 1003.7mb 41f 17f
5:50 10ft 9s 6s 47 56 mph 1003.4mb 41f 17f
4:50 10ft 8s 6s 43 56 mph 1006.4mb 40f 17f
3:50 9ft 8s 5s 43 51 mph 1008.1mb 40f 17f
2:50 8.5ft 7s 5s 40 49 mph 1008.8mb 40f 18f
1:50 7.5ft 7s 5s 38 47 mph 1010.7mb 40f 18f
12:50 7ft 7s 5s 38 45 mph 1012.5mb 39f 20f
lun. 01/26 11:50 6ft 6s 5s 34 40 mph 1014.3mb 39f 20f
10:50 5.5ft 5s 5s 31 38 mph 1017mb 39f 20f
9:50 5ft 5s 5s 29 36 mph 1018.5mb 40f 21f
8:50 4.5ft 5s 5s 27 31 mph 1019.7mb 40f 21f
7:50 4ft 11s 4s 22 29 mph 1020.8mb 40f 21f
6:50 3.5ft 12s 4s 22 27 mph 1020.8mb 40f 21f
5:50 3.5ft 11s 4s 20 25 mph 1021.1mb 40f 22f
4:50 3ft 11s 4s 20 27 mph 1020.4mb 40f 23f
3:50 2.5ft 11s 4s 18 22 mph 1020.4mb 40f 21f
2:50 2.5ft 12s 4s 13 18 mph 1020.9mb 40f 21f
1:50 2.5ft 11s 4s 13 18 mph 1020mb 40f 20f
12:50 2.5ft 11s 4s 13 20 mph 1021.2mb 40f 19f
11:50 2.5ft 13s 5s 13 18 mph 1022mb 40f 18f
10:50 2.5ft 12s 5s 9 13 mph 1022.9mb 40f 17f
9:50 2.5ft 12s 5s 13 18 mph 1022.5mb 40f 15f
8:50 2.5ft 12s 5s 18 22 mph 1022mb 40f 14f
7:50 2.5ft 13s 5s 13 18 mph 1021.7mb 40f 13f
6:50 2.5ft 11s 4s 18 20 mph 1020.9mb 39f 13f
5:50 2.5ft 13s 4s 16 20 mph 1020mb 39f 15f
4:50 2.5ft 11s 5s 16 20 mph 1019.4mb 39f 14f
3:50 2.5ft 12s 4s 16 20 mph 1018.6mb 39f 14f
2:50 2.5ft 12s 5s 16 20 mph 1018.5mb 39f 13f
1:50 2.5ft 12s 5s 13 18 mph 1018.6mb 39f 14f
12:50 2.5ft 13s 5s 20 22 mph 1017.2mb 39f 15f
dim. 01/25 11:50 3.5ft 13s 5s 20 25 mph 1016.7mb 39f 16f
10:50 3.5ft 12s 5s 22 27 mph 1016.1mb 39f 17f
9:50 3.5ft 13s 6s 18 22 mph 1015mb 40f 18f
8:50 4.5ft 13s 6s 13 20 mph 1013.8mb 40f 21f
7:50 3.5ft 13s 5s 18 22 mph 1012.3mb 40f 22f